Alt de la Fuente, Puerto Rico
Current Conditions -  °F | °C
As of 12:56 PM on Wednesday 26 Nov 2014 (Local Time) from TJSJ Reporting Station
Scattered Clouds Scattered Clouds  
Wind Chill: 82°   Ceiling: Unl
Heat Index: 88°   Visibility: 10mi
Dew Point: 74°   Wind: 16mph
Humidity: 76%   Direction: 60°ENE
Pressure: 30.01"   Gusts: NA
Location:  18.2351°N, 66.0374°W
Report Text: TJSJ 261656Z 06014KT 10SM FEW027 SCT038 SCT080 28/23 A3001 RMK AO2 SLP160 VCSH N-NE P0001 T02780233
Loading
Personal Weather Stations






























Interactive Weather Map New forecast layout! Learn more

10-Day Weather Forecast

Advertisements
Track Severe Weather on mobile